Time;durP1;ratioP1;P1;durP2;ratioP2;P2;SDS_P1;SDS_P2;PMS_P1;PMS_P2;Temp;Humidity;BMP_temperature;BMP_pressure;BME280_temperature;BME280_humidity;BME280_pressure;Samples;Min_cycle;Max_cycle;Signal;HPM_P1;HPM_P2
2022/10/05 00:02:18;;;;;;;;;23.75;19.25;;;;;17.64;56.30;99260.22;4909229;28;102400;-63
2022/10/05 00:04:47;;;;;;;;;19.00;18.50;;;;;17.64;56.77;99252.84;4901430;28;104062;-62
2022/10/05 00:07:18;;;;;;;;;19.75;17.00;;;;;17.65;56.21;99248.22;4921333;28;102289;-62
2022/10/05 00:09:56;;;;;;;;;20.75;19.50;;;;;17.65;56.97;99249.03;4901134;28;103067;-62
2022/10/05 00:12:23;;;;;;;;;17.25;16.50;;;;;17.65;56.25;99251.75;4887948;28;102235;-62
2022/10/05 00:14:52;;;;;;;;;17.75;16.75;;;;;17.65;56.26;99262.69;4921145;28;104220;-61
2022/10/05 00:17:20;;;;;;;;;19.25;18.50;;;;;17.64;56.88;99261.06;4910968;28;102817;-62
2022/10/05 00:19:51;;;;;;;;;24.50;19.25;;;;;17.62;56.74;99243.19;4915351;28;102414;-61
2022/10/05 00:22:22;;;;;;;;;21.00;17.50;;;;;17.61;56.96;99257.91;4901005;28;102334;-62
2022/10/05 00:24:53;;;;;;;;;20.00;18.00;;;;;17.59;56.42;99249.13;4905015;28;108861;-62
2022/10/05 00:27:24;;;;;;;;;23.00;20.00;;;;;17.58;56.88;99244.69;4915238;28;102504;-62
2022/10/05 00:29:52;;;;;;;;;14.00;14.00;;;;;17.57;56.31;99254.78;4902726;28;102584;-62
2022/10/05 00:32:19;;;;;;;;;20.00;18.00;;;;;17.56;56.21;99250.38;4887421;28;102442;-62
2022/10/05 00:34:46;;;;;;;;;19.75;17.00;;;;;17.55;56.90;99245.16;4917572;28;109706;-62
2022/10/05 00:37:13;;;;;;;;;15.50;14.00;;;;;17.53;56.36;99237.16;4903521;28;102571;-62
2022/10/05 00:39:40;;;;;;;;;22.75;17.50;;;;;17.51;56.09;99233.00;4912676;28;102448;-62
2022/10/05 00:42:26;;;;;;;;;18.75;17.00;;;;;17.48;57.03;99234.28;4915479;28;102514;-62
2022/10/05 00:45:46;;;;;;;;;22.50;18.00;;;;;17.49;57.13;99226.91;4910532;28;108989;-62
2022/10/05 00:48:25;;;;;;;;;26.00;17.25;;;;;17.51;56.37;99231.13;4836320;28;102485;-62
2022/10/05 00:51:23;;;;;;;;;20.00;18.00;;;;;17.54;56.31;99229.81;4927052;28;102413;-61
2022/10/05 00:54:07;;;;;;;;;18.50;17.75;;;;;17.54;56.50;99218.88;4939977;28;102294;-62
2022/10/05 00:56:45;;;;;;;;;19.50;16.75;;;;;17.52;56.30;99210.88;4932395;28;108863;-62
2022/10/05 01:00:03;;;;;;;;;18.00;15.25;;;;;17.52;56.49;99212.78;4932174;28;102208;-62
2022/10/05 01:02:48;;;;;;;;;20.50;20.00;;;;;17.51;56.27;99209.22;4850672;28;102607;-62
2022/10/05 01:05:21;;;;;;;;;18.00;17.75;;;;;17.50;56.48;99204.00;4857660;28;102321;-62
2022/10/05 01:08:01;;;;;;;;;20.00;17.50;;;;;17.48;56.65;99204.22;4907339;28;108889;-62
2022/10/05 01:10:55;;;;;;;;;19.25;18.00;;;;;17.46;56.86;99189.94;4934337;28;102548;-62
2022/10/05 01:13:49;;;;;;;;;21.25;16.75;;;;;17.44;56.76;99175.66;4942281;28;102458;-62
2022/10/05 01:16:53;;;;;;;;;20.00;17.75;;;;;17.43;56.33;99184.91;4933205;28;102276;-62
2022/10/05 01:19:49;;;;;;;;;15.25;14.00;;;;;17.42;57.06;99184.09;4930759;28;108272;-61
2022/10/05 01:23:23;;;;;;;;;17.50;14.25;;;;;17.40;57.33;99182.66;4935217;28;102868;-62
2022/10/05 01:26:04;;;;;;;;;21.25;19.25;;;;;17.39;57.09;99178.25;4883130;28;102248;-62
2022/10/05 01:28:36;;;;;;;;;18.00;16.00;;;;;17.38;56.94;99184.81;4873470;28;102857;-62
2022/10/05 01:31:03;;;;;;;;;19.75;17.50;;;;;17.38;57.10;99187.53;4904165;28;104374;-62
2022/10/05 01:33:48;;;;;;;;;22.25;18.00;;;;;17.38;56.67;99190.28;4942200;28;102370;-62
2022/10/05 01:36:39;;;;;;;;;19.50;19.00;;;;;17.40;57.16;99196.34;4920594;28;102373;-62
2022/10/05 01:39:24;;;;;;;;;15.50;15.00;;;;;17.42;56.34;99200.50;4945934;28;102464;-61
2022/10/05 01:42:27;;;;;;;;;16.25;15.25;;;;;17.42;56.92;99205.97;4940551;28;109109;-62
2022/10/05 01:45:06;;;;;;;;;19.75;16.00;;;;;17.41;56.58;99214.41;4880692;28;103953;-62
2022/10/05 01:47:54;;;;;;;;;16.25;15.50;;;;;17.41;56.97;99217.13;4934639;28;102546;-62
2022/10/05 01:51:03;;;;;;;;;12.50;11.50;;;;;17.40;56.32;99213.56;4937541;28;102872;-62
2022/10/05 01:53:48;;;;;;;;;18.75;16.25;;;;;17.39;56.69;99214.63;4940699;28;108860;-62
2022/10/05 01:56:40;;;;;;;;;18.75;17.50;;;;;17.39;56.85;99211.91;4936573;28;105422;-63
2022/10/05 01:59:17;;;;;;;;;17.00;15.00;;;;;17.37;56.78;99196.81;4924572;28;102599;-62
2022/10/05 02:01:57;;;;;;;;;17.25;16.00;;;;;17.35;56.89;99198.91;4938122;28;103729;-62
2022/10/05 02:04:34;;;;;;;;;16.50;16.25;;;;;17.35;56.57;99182.50;4916913;28;109261;-62
2022/10/05 02:07:47;;;;;;;;;15.50;15.00;;;;;17.32;57.46;99177.53;4935226;28;102490;-62
2022/10/05 02:10:17;;;;;;;;;18.25;16.00;;;;;17.31;56.66;99175.84;4928841;28;102527;-61
2022/10/05 02:12:45;;;;;;;;;22.00;19.50;;;;;17.29;56.57;99167.84;4922751;28;102513;-62
2022/10/05 02:15:14;;;;;;;;;15.50;14.00;;;;;17.27;57.01;99171.91;4923596;28;104090;-62
2022/10/05 02:17:44;;;;;;;;;16.00;15.50;;;;;17.25;56.25;99169.38;4937828;28;102131;-61
2022/10/05 02:20:16;;;;;;;;;20.00;18.25;;;;;17.26;56.70;99162.88;4925439;28;102658;-61
2022/10/05 02:22:48;;;;;;;;;21.50;16.50;;;;;17.29;56.70;99172.53;4907635;28;102673;-62
2022/10/05 02:25:16;;;;;;;;;15.75;14.50;;;;;17.31;56.79;99181.31;4903165;28;104030;-61
2022/10/05 02:27:57;;;;;;;;;18.00;16.00;;;;;17.32;56.07;99172.06;4921391;28;102599;-62
2022/10/05 02:30:24;;;;;;;;;17.00;16.25;;;;;17.31;56.31;99168.47;4916604;28;102972;-61
2022/10/05 02:32:57;;;;;;;;;21.25;17.50;;;;;17.31;55.92;99162.19;4942246;28;102469;-61
2022/10/05 02:35:24;;;;;;;;;17.50;15.25;;;;;17.32;56.52;99163.84;4917258;28;109072;-61
2022/10/05 02:37:58;;;;;;;;;20.00;17.75;;;;;17.29;56.56;99162.41;4901217;28;103898;-62
2022/10/05 02:40:37;;;;;;;;;17.50;16.25;;;;;17.30;56.67;99157.75;4933064;28;102305;-62
2022/10/05 02:43:25;;;;;;;;;17.75;17.00;;;;;17.26;56.76;99160.13;4939688;28;102418;-61
2022/10/05 02:45:58;;;;;;;;;19.25;17.25;;;;;17.27;56.34;99155.50;4920200;28;108919;-61
2022/10/05 02:48:49;;;;;;;;;17.75;16.50;;;;;17.27;56.96;99152.78;4931814;28;103691;-61
2022/10/05 02:51:27;;;;;;;;;17.25;16.25;;;;;17.26;56.78;99141.00;4930491;28;103884;-61
2022/10/05 02:54:32;;;;;;;;;13.50;12.50;;;;;17.25;57.24;99147.53;4934255;28;102371;-62
2022/10/05 02:57:25;;;;;;;;;19.25;15.75;;;;;17.23;56.48;99151.56;4875525;28;108814;-61
2022/10/05 02:59:59;;;;;;;;;17.25;17.25;;;;;17.23;56.43;99148.84;4932837;28;103245;-61
2022/10/05 03:02:39;;;;;;;;;19.50;16.75;;;;;17.21;56.47;99154.53;4917711;28;103925;-61
2022/10/05 03:05:19;;;;;;;;;19.75;16.00;;;;;17.20;56.56;99165.69;4937089;28;102350;-62
2022/10/05 03:08:08;;;;;;;;;15.00;14.75;;;;;17.21;56.74;99172.81;4931646;28;104043;-62
2022/10/05 03:10:42;;;;;;;;;17.50;15.50;;;;;17.22;56.12;99175.31;4918033;28;102579;-61
2022/10/05 03:13:23;;;;;;;;;19.50;17.50;;;;;17.24;56.96;99172.38;4899161;28;103734;-62
2022/10/05 03:16:28;;;;;;;;;16.25;15.25;;;;;17.25;56.78;99182.22;4921116;28;102900;-62
2022/10/05 03:19:01;;;;;;;;;19.50;16.75;;;;;17.25;55.88;99190.41;4931828;28;108916;-62
2022/10/05 03:21:37;;;;;;;;;19.75;16.50;;;;;17.24;56.28;99202.44;4933849;28;103551;-61
2022/10/05 03:24:15;;;;;;;;;20.50;16.75;;;;;17.24;56.74;99194.25;4935872;28;103655;-61
2022/10/05 03:27:00;;;;;;;;;20.50;15.75;;;;;17.22;56.96;99205.38;4933246;28;102660;-61
2022/10/05 03:29:41;;;;;;;;;19.50;17.00;;;;;17.22;56.36;99205.38;4929295;28;108932;-61
2022/10/05 03:32:08;;;;;;;;;23.00;19.25;;;;;17.22;57.30;99212.75;4935209;28;102359;-61
2022/10/05 03:34:37;;;;;;;;;16.75;15.50;;;;;17.20;56.89;99210.22;4935201;28;102151;-61
2022/10/05 03:37:26;;;;;;;;;19.25;18.50;;;;;17.20;57.05;99209.44;4938911;28;102552;-61
2022/10/05 03:39:59;;;;;;;;;16.00;15.00;;;;;17.20;56.50;99217.63;4915738;28;108957;-62
2022/10/05 03:42:33;;;;;;;;;17.50;16.25;;;;;17.17;57.37;99213.44;4910984;28;102224;-61
2022/10/05 03:45:28;;;;;;;;;16.75;15.75;;;;;17.17;56.81;99218.91;4898921;28;102556;-61
2022/10/05 03:48:02;;;;;;;;;22.75;18.00;;;;;17.17;56.63;99229.00;4914605;28;102503;-62
2022/10/05 03:50:54;;;;;;;;;17.50;15.75;;;;;17.16;56.52;99200.81;4906000;28;109022;-61
2022/10/05 03:53:22;;;;;;;;;17.25;16.00;;;;;17.13;56.69;99190.38;4935016;28;104572;-61
2022/10/05 03:56:11;;;;;;;;;19.50;18.00;;;;;17.13;56.57;99195.00;4923220;28;102325;-62
2022/10/05 03:58:39;;;;;;;;;18.25;17.00;;;;;17.13;56.12;99179.44;4935351;28;103053;-61
2022/10/05 04:01:09;;;;;;;;;16.00;16.00;;;;;17.14;56.69;99161.16;4927327;28;104200;-62
2022/10/05 04:03:47;;;;;;;;;16.75;15.25;;;;;17.15;57.10;99154.63;4901918;28;102191;-62
2022/10/05 04:06:21;;;;;;;;;16.00;14.50;;;;;17.15;56.48;99149.16;4919058;28;102411;-61
2022/10/05 04:08:53;;;;;;;;;19.25;16.75;;;;;17.12;55.88;99150.44;4920520;28;102582;-62
2022/10/05 04:11:32;;;;;;;;;20.50;20.25;;;;;17.09;55.78;99150.06;4916662;28;104213;-62
2022/10/05 04:14:22;;;;;;;;;19.25;18.75;;;;;17.07;55.78;99141.25;4910110;28;107099;-62
2022/10/05 04:16:55;;;;;;;;;12.50;12.25;;;;;17.05;56.83;99137.94;4931206;28;103147;-61
2022/10/05 04:19:50;;;;;;;;;21.25;16.25;;;;;17.04;56.82;99130.78;4897444;28;103845;-61
2022/10/05 04:22:31;;;;;;;;;18.25;17.25;;;;;17.05;56.62;99137.94;4929881;28;108862;-61
2022/10/05 04:25:02;;;;;;;;;18.50;14.75;;;;;17.04;56.79;99136.25;4929953;28;102372;-61
2022/10/05 04:27:38;;;;;;;;;20.75;17.00;;;;;17.02;56.46;99143.84;4921148;28;102230;-62
2022/10/05 04:30:08;;;;;;;;;19.25;18.00;;;;;17.02;56.25;99144.66;4923448;28;102534;-67
2022/10/05 04:32:37;;;;;;;;;19.00;17.25;;;;;17.00;56.61;99157.75;4898278;28;104067;-66
2022/10/05 04:35:36;;;;;;;;;17.50;16.25;;;;;17.02;56.48;99152.88;4938083;28;102445;-66
2022/10/05 04:38:45;;;;;;;;;17.50;15.00;;;;;17.02;56.48;99161.06;4930070;28;102413;-65
2022/10/05 04:41:30;;;;;;;;;21.00;19.25;;;;;17.01;56.32;99166.78;4934343;28;103164;-66
2022/10/05 04:44:15;;;;;;;;;21.00;18.75;;;;;17.01;56.25;99169.50;4945687;28;108966;-66
2022/10/05 04:47:04;;;;;;;;;17.50;17.25;;;;;17.00;56.75;99171.41;4914539;28;102196;-66
2022/10/05 04:49:43;;;;;;;;;24.00;19.75;;;;;17.02;56.38;99169.25;4942123;28;102693;-66
2022/10/05 04:52:38;;;;;;;;;21.50;18.50;;;;;17.04;57.04;99169.03;4929088;28;102434;-65
2022/10/05 04:55:28;;;;;;;;;20.00;18.25;;;;;17.04;56.08;99164.41;4909773;28;108879;-66
2022/10/05 04:58:09;;;;;;;;;17.75;16.00;;;;;17.04;56.61;99160.84;4935491;28;102300;-66
2022/10/05 05:00:46;;;;;;;;;23.00;19.50;;;;;17.03;56.15;99153.69;4921713;28;102576;-66
2022/10/05 05:03:39;;;;;;;;;18.50;17.00;;;;;17.03;55.86;99150.97;4940400;28;102467;-67
2022/10/05 05:06:28;;;;;;;;;19.00;17.25;;;;;17.01;56.67;99153.13;4928499;28;108813;-67
2022/10/05 05:09:44;;;;;;;;;19.00;17.00;;;;;16.99;57.22;99160.69;4925102;28;102378;-66
2022/10/05 05:12:24;;;;;;;;;16.25;15.00;;;;;16.99;56.21;99152.50;4883336;28;102458;-66
2022/10/05 05:15:01;;;;;;;;;17.25;15.50;;;;;16.99;56.77;99152.50;4927915;28;102641;-66
2022/10/05 05:18:00;;;;;;;;;17.25;15.75;;;;;16.99;57.19;99160.69;4907369;28;109094;-66
2022/10/05 05:20:45;;;;;;;;;17.75;14.25;;;;;16.98;55.98;99164.47;4911345;28;103268;-66
2022/10/05 05:23:39;;;;;;;;;17.00;16.00;;;;;16.98;56.76;99167.22;4932295;28;102369;-66
2022/10/05 05:26:42;;;;;;;;;17.75;16.50;;;;;16.95;56.97;99144.75;4909912;28;102483;-66
2022/10/05 05:29:33;;;;;;;;;20.25;18.50;;;;;16.94;56.36;99158.66;4930558;28;109123;-66
2022/10/05 05:32:07;;;;;;;;;18.25;15.25;;;;;16.94;56.88;99151.28;4926617;28;102346;-66
2022/10/05 05:34:40;;;;;;;;;21.50;16.75;;;;;16.94;56.31;99148.56;4902341;28;102091;-66
2022/10/05 05:37:39;;;;;;;;;15.00;14.25;;;;;16.95;56.77;99133.84;4934320;28;102182;-66
2022/10/05 05:40:16;;;;;;;;;16.00;15.25;;;;;16.99;56.34;99127.91;4910759;28;109092;-66
2022/10/05 05:43:07;;;;;;;;;19.00;16.00;;;;;16.99;56.24;99144.28;4922221;28;102444;-67
2022/10/05 05:45:41;;;;;;;;;21.50;15.50;;;;;17.00;56.81;99173.28;4905451;28;102091;-66
2022/10/05 05:48:18;;;;;;;;;20.50;16.00;;;;;17.00;55.99;99187.78;4901401;28;102383;-66
2022/10/05 05:50:50;;;;;;;;;19.75;18.75;;;;;16.99;56.38;99177.91;4899399;28;104023;-66
2022/10/05 05:53:32;;;;;;;;;20.50;17.00;;;;;17.00;56.73;99186.94;4907379;28;102398;-66
2022/10/05 05:56:09;;;;;;;;;16.25;15.50;;;;;16.99;56.11;99180.66;4878635;28;102636;-66
2022/10/05 05:59:01;;;;;;;;;19.75;17.50;;;;;16.99;56.49;99166.16;4917891;28;102659;-66
2022/10/05 06:01:39;;;;;;;;;18.25;16.00;;;;;16.98;56.10;99164.47;4916382;28;108980;-66
2022/10/05 06:04:13;;;;;;;;;19.00;17.50;;;;;16.98;56.15;99168.03;4914578;28;102354;-66
2022/10/05 06:06:43;;;;;;;;;18.50;15.75;;;;;16.97;56.20;99169.13;4912440;28;103421;-66
2022/10/05 06:09:34;;;;;;;;;15.25;15.25;;;;;16.99;56.19;99168.88;4875226;28;102461;-67
2022/10/05 06:12:21;;;;;;;;;15.25;14.50;;;;;16.98;56.10;99180.88;4896197;28;109119;-65
2022/10/05 06:14:59;;;;;;;;;21.25;16.75;;;;;16.98;56.56;99197.25;4883484;28;102227;-66
2022/10/05 06:17:29;;;;;;;;;19.50;17.00;;;;;16.96;56.67;99194.78;4902718;28;102423;-66
2022/10/05 06:19:59;;;;;;;;;18.50;17.50;;;;;16.95;56.83;99199.41;4919421;28;102271;-66
2022/10/05 06:22:40;;;;;;;;;20.50;17.00;;;;;16.95;56.90;99188.47;4899946;28;109145;-66
2022/10/05 06:25:13;;;;;;;;;18.50;14.75;;;;;16.98;56.21;99186.34;4898663;28;102557;-66
2022/10/05 06:28:15;;;;;;;;;16.25;15.25;;;;;16.99;56.37;99177.91;4912766;28;102427;-66
2022/10/05 06:30:52;;;;;;;;;15.75;13.75;;;;;17.00;55.79;99167.84;4900478;28;102420;-66
2022/10/05 06:33:44;;;;;;;;;12.75;11.25;;;;;17.00;56.17;99167.84;4899806;28;104102;-66
2022/10/05 06:36:17;;;;;;;;;18.50;17.25;;;;;17.00;56.52;99159.63;4894949;28;102576;-66
2022/10/05 06:38:44;;;;;;;;;16.25;15.50;;;;;17.00;55.92;99173.28;4899736;28;102341;-66
2022/10/05 06:41:41;;;;;;;;;18.00;15.00;;;;;17.00;56.29;99196.00;4904680;28;102518;-66
2022/10/05 06:44:15;;;;;;;;;16.50;14.75;;;;;17.00;55.91;99195.16;4907147;28;109175;-66
2022/10/05 06:46:52;;;;;;;;;14.75;14.50;;;;;17.00;56.39;99193.25;4915119;28;102420;-67
2022/10/05 06:49:28;;;;;;;;;15.75;13.75;;;;;17.00;56.42;99195.16;4908607;28;103988;-66
2022/10/05 06:52:02;;;;;;;;;17.50;17.50;;;;;17.00;56.62;99198.72;4919565;28;102430;-66
2022/10/05 06:55:21;;;;;;;;;14.00;13.25;;;;;17.01;55.97;99207.75;4901690;28;108992;-66
2022/10/05 06:58:17;;;;;;;;;15.75;14.00;;;;;17.03;56.89;99200.16;4892108;28;102653;-67
2022/10/05 07:00:54;;;;;;;;;15.00;15.00;;;;;17.03;55.46;99189.22;4914871;28;102392;-66
2022/10/05 07:03:25;;;;;;;;;16.25;15.75;;;;;17.05;56.20;99181.66;4916901;28;102284;-67
2022/10/05 07:06:10;;;;;;;;;21.50;18.75;;;;;17.04;55.90;99185.44;4914823;28;104103;-65
2022/10/05 07:08:46;;;;;;;;;18.00;15.00;;;;;17.03;55.92;99178.28;4903548;28;103341;-66
2022/10/05 07:11:25;;;;;;;;;14.50;14.50;;;;;17.04;55.87;99177.22;4915329;28;102521;-66
2022/10/05 07:14:12;;;;;;;;;15.50;14.25;;;;;17.05;55.75;99187.09;4917766;28;102328;-66
2022/10/05 07:16:48;;;;;;;;;17.25;17.00;;;;;17.07;55.69;99183.06;4916621;28;108849;-66
2022/10/05 07:19:18;;;;;;;;;17.75;15.00;;;;;17.08;55.68;99179.28;4916156;28;102372;-66
2022/10/05 07:21:44;;;;;;;;;14.75;14.25;;;;;17.09;56.44;99178.22;4917629;28;102289;-66
2022/10/05 07:24:12;;;;;;;;;17.00;16.00;;;;;17.10;56.04;99165.41;4918499;28;102517;-66
2022/10/05 07:26:44;;;;;;;;;17.25;16.50;;;;;17.11;55.61;99164.34;4916351;28;105253;-67
2022/10/05 07:29:35;;;;;;;;;14.00;13.50;;;;;17.13;55.64;99178.59;4893122;28;102083;-66
2022/10/05 07:32:23;;;;;;;;;16.00;14.00;;;;;17.11;56.58;99164.34;4899391;28;102236;-66
2022/10/05 07:34:53;;;;;;;;;14.25;14.00;;;;;17.13;56.01;99181.31;4917774;28;102466;-66
2022/10/05 07:37:53;;;;;;;;;16.25;16.25;;;;;17.12;55.28;99183.22;4917211;28;104041;-66
2022/10/05 07:40:25;;;;;;;;;19.75;14.75;;;;;17.13;55.84;99184.06;4916204;28;102090;-66
2022/10/05 07:43:04;;;;;;;;;11.00;10.75;;;;;17.15;55.72;99193.72;4916770;28;102657;-66
2022/10/05 07:45:54;;;;;;;;;13.25;12.25;;;;;17.14;56.09;99183.84;4918121;28;102534;-66
2022/10/05 07:48:47;;;;;;;;;18.00;14.50;;;;;17.17;56.11;99185.28;4921541;28;108912;-66
2022/10/05 07:51:28;;;;;;;;;15.75;14.50;;;;;17.18;55.54;99195.97;4887167;28;106946;-66
2022/10/05 07:54:20;;;;;;;;;15.75;14.50;;;;;17.17;55.37;99196.19;4914857;28;102424;-66
2022/10/05 07:57:11;;;;;;;;;16.75;14.50;;;;;17.19;55.89;99188.63;4913336;28;102667;-66
2022/10/05 07:59:43;;;;;;;;;14.00;12.25;;;;;17.21;55.84;99183.75;4919918;28;108894;-66
2022/10/05 08:02:25;;;;;;;;;16.00;15.50;;;;;17.22;55.87;99189.00;4907784;28;102270;-66
2022/10/05 08:05:21;;;;;;;;;14.50;13.50;;;;;17.23;55.83;99187.94;4918277;28;102321;-66
2022/10/05 08:07:51;;;;;;;;;16.75;13.25;;;;;17.25;55.87;99188.53;4909970;28;102562;-66
2022/10/05 08:10:35;;;;;;;;;14.00;13.00;;;;;17.26;55.14;99201.13;4901492;28;104075;-66
2022/10/05 08:13:18;;;;;;;;;13.00;12.75;;;;;17.27;55.26;99185.56;4897307;28;102544;-66
2022/10/05 08:15:47;;;;;;;;;13.00;11.25;;;;;17.28;55.40;99206.38;4903339;28;102415;-66
2022/10/05 08:18:36;;;;;;;;;16.50;15.50;;;;;17.30;55.41;99212.44;4922374;28;102320;-66
2022/10/05 08:21:05;;;;;;;;;15.25;13.75;;;;;17.31;55.37;99208.66;4917512;28;108951;-66
2022/10/05 08:23:43;;;;;;;;;14.50;13.00;;;;;17.32;55.37;99210.31;4906995;28;102398;-65
2022/10/05 08:26:15;;;;;;;;;16.00;14.00;;;;;17.33;54.85;99203.78;4914741;28;102232;-66
2022/10/05 08:28:55;;;;;;;;;13.50;13.25;;;;;17.33;54.87;99201.91;4923224;28;102417;-66
2022/10/05 08:31:23;;;;;;;;;13.50;12.00;;;;;17.35;55.23;99212.59;4915192;28;104075;-66
2022/10/05 08:33:51;;;;;;;;;12.50;10.00;;;;;17.34;55.60;99211.75;4905681;28;102365;-66
2022/10/05 08:36:40;;;;;;;;;14.25;13.25;;;;;17.35;55.34;99210.69;4912519;28;102438;-66
2022/10/05 08:39:12;;;;;;;;;16.00;13.00;;;;;17.36;54.77;99206.91;4918127;28;102596;-66
2022/10/05 08:41:53;;;;;;;;;17.25;15.50;;;;;17.37;55.14;99202.28;4906155;28;104140;-66
2022/10/05 08:44:58;;;;;;;;;4.25;3.50;;;;;17.36;55.41;99204.16;4915931;28;102429;-66
2022/10/05 08:47:59;;;;;;;;;16.00;15.75;;;;;17.36;55.04;99200.59;4914078;28;102417;-66
2022/10/05 08:50:31;;;;;;;;;14.25;13.00;;;;;17.37;55.41;99207.75;4916221;28;102474;-66
2022/10/05 08:53:14;;;;;;;;;11.25;10.75;;;;;17.37;55.67;99207.75;4913671;28;104067;-66
2022/10/05 08:55:54;;;;;;;;;14.00;12.75;;;;;17.38;54.92;99204.75;4912405;28;103390;-66
2022/10/05 08:58:30;;;;;;;;;15.25;14.75;;;;;17.37;55.76;99207.75;4894415;28;102465;-66
2022/10/05 09:01:03;;;;;;;;;15.00;14.00;;;;;17.38;55.94;99206.69;4920415;28;102593;-66
2022/10/05 09:03:33;;;;;;;;;12.50;12.50;;;;;17.40;55.07;99207.25;4923074;28;109067;-66
2022/10/05 09:06:13;;;;;;;;;11.00;11.00;;;;;17.39;55.13;99203.69;4910048;28;102344;-66
2022/10/05 09:09:02;;;;;;;;;7.00;6.75;;;;;17.40;54.79;99199.91;4903533;28;102405;-66
2022/10/05 09:11:34;;;;;;;;;14.00;12.25;;;;;17.41;55.63;99203.47;4925805;28;102617;-66
2022/10/05 09:14:23;;;;;;;;;14.50;14.25;;;;;17.41;55.46;99198.00;4908266;28;109141;-66
2022/10/05 09:17:21;;;;;;;;;16.75;14.00;;;;;17.42;54.63;99195.03;4914301;28;102292;-66
2022/10/05 09:20:29;;;;;;;;;13.25;11.50;;;;;17.43;54.61;99190.38;4917850;28;102136;-66
2022/10/05 09:22:58;;;;;;;;;12.25;12.25;;;;;17.43;54.96;99195.84;4887151;28;102605;-66
2022/10/05 09:25:57;;;;;;;;;12.75;12.25;;;;;17.44;54.72;99188.50;4892523;28;104062;-66
2022/10/05 09:28:33;;;;;;;;;13.00;11.75;;;;;17.45;55.11;99191.00;4904495;28;102237;-66
2022/10/05 09:31:12;;;;;;;;;9.75;9.25;;;;;17.45;55.14;99193.75;4910037;28;105617;-66
2022/10/05 09:33:53;;;;;;;;;12.50;11.75;;;;;17.45;55.52;99193.75;4924304;28;102520;-66
2022/10/05 09:36:46;;;;;;;;;8.75;8.50;;;;;17.46;55.05;99189.94;4920435;28;104071;-66
2022/10/05 09:39:19;;;;;;;;;10.00;9.25;;;;;17.47;54.82;99185.31;4918521;28;102111;-66
2022/10/05 09:42:13;;;;;;;;;11.50;10.25;;;;;17.47;55.11;99186.13;4915288;28;102202;-66
2022/10/05 09:44:45;;;;;;;;;13.00;12.25;;;;;17.48;55.47;99185.06;4914442;28;102681;-66
2022/10/05 09:47:40;;;;;;;;;13.50;13.00;;;;;17.47;54.75;99186.13;4939506;28;104162;-66
2022/10/05 09:50:21;;;;;;;;;11.00;11.00;;;;;17.50;55.47;99193.88;4936897;28;102197;-66
2022/10/05 09:53:08;;;;;;;;;12.75;12.00;;;;;17.49;54.83;99194.94;4935242;28;102162;-67
2022/10/05 09:56:08;;;;;;;;;16.75;12.50;;;;;17.50;54.71;99190.31;4901213;28;102497;-63
2022/10/05 09:59:04;;;;;;;;;12.75;12.75;;;;;17.50;55.55;99193.88;4927104;28;109116;-66
2022/10/05 10:02:03;;;;;;;;;7.75;6.75;;;;;17.51;55.45;99197.47;4924825;28;102371;-66
2022/10/05 10:04:39;;;;;;;;;10.50;10.50;;;;;17.52;54.78;99196.38;4921582;28;102360;-66
2022/10/05 10:07:40;;;;;;;;;11.75;11.75;;;;;17.52;55.31;99201.84;4926784;28;102176;-66
2022/10/05 10:10:12;;;;;;;;;12.50;11.50;;;;;17.52;55.13;99194.47;4924234;28;109072;-66
2022/10/05 10:12:55;;;;;;;;;13.00;10.50;;;;;17.52;55.65;99182.69;4934630;28;102221;-67
2022/10/05 10:15:51;;;;;;;;;12.00;10.25;;;;;17.53;55.70;99192.56;4924792;28;102347;-66
2022/10/05 10:18:37;;;;;;;;;11.50;10.00;;;;;17.53;55.26;99189.84;4929226;28;102464;-66
2022/10/05 10:21:32;;;;;;;;;10.25;7.75;;;;;17.53;55.36;99198.03;4940743;28;109090;-66
2022/10/05 10:24:36;;;;;;;;;12.25;10.25;;;;;17.54;55.54;99202.47;4929939;28;102596;-66
2022/10/05 10:27:15;;;;;;;;;12.50;11.25;;;;;17.54;55.63;99202.47;4936494;28;102491;-66
2022/10/05 10:29:42;;;;;;;;;10.75;9.25;;;;;17.54;55.61;99197.81;4926264;28;102658;-66
2022/10/05 10:32:30;;;;;;;;;10.25;10.00;;;;;17.56;55.64;99200.34;4936614;28;104102;-65
2022/10/05 10:35:18;;;;;;;;;9.00;8.00;;;;;17.56;54.68;99203.88;4935659;28;102682;-66
2022/10/05 10:38:18;;;;;;;;;10.67;10.67;;;;;17.57;54.74;99207.44;4937808;28;102598;-66
2022/10/05 10:40:51;;;;;;;;;11.00;10.00;;;;;17.57;55.09;99194.63;4925017;28;102147;-66
2022/10/05 10:43:30;;;;;;;;;11.00;10.00;;;;;17.57;55.30;99196.50;4935102;28;104077;-66
2022/10/05 10:46:22;;;;;;;;;14.00;11.50;;;;;17.58;54.62;99189.97;4938693;28;102512;-66
2022/10/05 10:48:56;;;;;;;;;12.00;11.00;;;;;17.58;54.87;99188.13;4936186;28;102207;-67
2022/10/05 10:51:38;;;;;;;;;12.00;10.25;;;;;17.59;55.37;99189.81;4941155;28;102337;-67
2022/10/05 10:54:34;;;;;;;;;11.00;10.25;;;;;17.59;55.10;99192.53;4931567;28;108871;-62
2022/10/05 10:57:12;;;;;;;;;13.25;10.75;;;;;17.59;54.89;99187.06;4930340;28;102299;-66
2022/10/05 10:59:42;;;;;;;;;14.00;11.00;;;;;17.59;54.89;99189.81;4908103;28;102398;-66
2022/10/05 11:02:31;;;;;;;;;11.50;11.25;;;;;17.59;54.64;99184.31;4938728;28;102628;-66
2022/10/05 11:05:26;;;;;;;;;11.25;10.00;;;;;17.59;55.23;99195.25;4933750;28;104154;-66
2022/10/05 11:08:35;;;;;;;;;11.00;9.50;;;;;17.59;54.71;99187.06;4940761;28;102284;-66
2022/10/05 11:11:06;;;;;;;;;8.75;8.75;;;;;17.60;55.25;99186.00;4900855;28;102522;-66
2022/10/05 11:13:54;;;;;;;;;11.25;10.75;;;;;17.60;55.23;99187.91;4920400;28;102785;-67
2022/10/05 11:16:55;;;;;;;;;11.75;11.75;;;;;17.60;55.27;99186.00;4918606;28;108812;-66
2022/10/05 11:19:27;;;;;;;;;10.67;9.67;;;;;17.59;55.39;99178.84;4924501;28;102208;-66
2022/10/05 11:22:29;;;;;;;;;11.00;10.50;;;;;17.61;55.38;99192.28;4925830;28;102636;-67
2022/10/05 11:25:02;;;;;;;;;10.25;10.25;;;;;17.61;54.75;99186.81;4918681;28;102761;-66
2022/10/05 11:27:41;;;;;;;;;9.25;8.75;;;;;17.60;54.85;99180.53;4926535;28;104051;-67
2022/10/05 11:30:18;;;;;;;;;10.50;10.00;;;;;17.60;54.80;99179.69;4911940;28;102509;-66
2022/10/05 11:33:17;;;;;;;;;12.50;11.00;;;;;17.60;55.22;99182.44;4921302;28;102511;-66
2022/10/05 11:36:08;;;;;;;;;13.00;11.00;;;;;17.61;55.65;99179.44;4856436;28;102325;-65
2022/10/05 11:38:57;;;;;;;;;10.25;10.00;;;;;17.62;54.85;99183.84;4935475;28;108749;-63
2022/10/05 11:42:01;;;;;;;;;8.50;8.25;;;;;17.63;55.61;99171.00;4934031;28;102148;-66
2022/10/05 11:44:47;;;;;;;;;12.00;10.00;;;;;17.64;54.99;99172.69;4929669;28;103025;-66
2022/10/05 11:47:32;;;;;;;;;12.00;11.00;;;;;17.64;54.92;99164.50;4938744;28;102890;-66
2022/10/05 11:50:05;;;;;;;;;11.00;10.00;;;;;17.65;55.11;99161.50;4902596;28;104169;-67
2022/10/05 11:52:39;;;;;;;;;10.00;9.50;;;;;17.66;54.79;99167.81;4936996;28;102311;-66
2022/10/05 11:55:23;;;;;;;;;9.50;9.00;;;;;17.67;55.38;99170.31;4915445;28;102486;-64
2022/10/05 11:58:04;;;;;;;;;10.67;10.67;;;;;17.67;54.84;99170.31;4917394;28;102698;-66
2022/10/05 12:00:39;;;;;;;;;10.00;10.00;;;;;17.67;54.85;99153.91;4920673;28;108686;-66
2022/10/05 12:03:21;;;;;;;;;11.00;8.67;;;;;17.67;55.55;99148.44;4909346;28;102213;-65
2022/10/05 12:05:54;;;;;;;;;9.67;9.33;;;;;17.68;55.08;99155.59;4923971;28;102360;-66
2022/10/05 12:08:42;;;;;;;;;9.33;8.00;;;;;17.69;55.27;99154.53;4924972;28;102497;-66
2022/10/05 12:11:35;;;;;;;;;8.33;8.00;;;;;17.70;55.36;99158.06;4921154;28;109656;-66
2022/10/05 12:14:07;;;;;;;;;10.75;9.00;;;;;17.71;54.76;99154.28;4925245;28;102503;-66
2022/10/05 12:16:50;;;;;;;;;9.75;9.00;;;;;17.71;54.64;99149.63;4905325;28;102220;-66
2022/10/05 12:19:22;;;;;;;;;9.00;8.00;;;;;17.72;55.06;99140.38;4917519;28;102213;-66